Bungo Princess — 3FXV8 — position and weather

sailwx.info

Track history (hours):
 
Tides and Currents Weather Stations Pressure Air Temp Water Temp Dewpoint Dewpoint Depression Visibility Wind Speed Wind Dir Waves Ship Positions

Bungo Princess

Last reported at 2015-May-26 01:25 UTC. Time now 2015-May-26 01:45 UTC.
Position N 31°22' E 121°30'.

Length 103 m; draft 8.4 m.

Type: Cargo ship. MMSI: 355091000.

Date/timePositionNaut miles runAvg speedWind from/ knotsBaromVisibWave heightAir tempDewpointWater temp
2015-May-26 01:25N 31°22' E 121°30'0 0.4
2015-May-26 00:34N 31°22' E 121°30'5 4.6
2015-May-25 23:34N 31°23' E 121°35'9 9.1
2015-May-25 22:32N 31°19' E 121°45'1111.2
2015-May-25 21:34N 31°15' E 121°57'1110.3
2015-May-25 20:30N 31°12' E 122°09'1010.7
2015-May-25 19:34N 31°06' E 122°19'1010.2
2015-May-25 18:32N 31°08' E 122°31'7 7.6
2015-May-25 17:34N 31°11' E 122°38'0 0.2
2015-May-25 16:20N 31°11' E 122°38'0 0.1
2015-May-25 15:23N 31°11' E 122°38'0 0.1
2015-May-25 14:32N 31°11' E 122°38'0 0.1
2015-May-25 12:33N 31°11' E 122°39'11 9.9
2015-May-25 11:28N 31°14' E 122°51'1111.8
2015-May-25 10:33N 31°16' E 123°03'32612.0
2015-May-24 07:27N 33°30' E 128°55'1311.6
2015-May-24 06:17N 33°38' E 129°09'811.4
2015-May-24 05:33N 33°43' E 129°17'2411.2
2015-May-24 03:26N 33°56' E 129°40'1511.5
2015-May-24 02:09N 33°59' E 129°58'1111.8
2015-May-24 01:13N 34°01' E 130°11'  
2015-May-20 14:32N 34°35' E 134°51'1312.9
2015-May-20 13:33N 34°35' E 135°07'1211.9
2015-May-20 12:33N 34°37' E 135°21'3 2.6
2015-May-20 11:22N 34°38' E 135°25'0 0.0
2015-May-20 10:22N 34°38' E 135°25'0 0.0
2015-May-20 09:28N 34°38' E 135°25'0 0.0
2015-May-20 08:22N 34°38' E 135°25'0 0.0
2015-May-20 07:22N 34°38' E 135°25'0 0.0
2015-May-20 06:04N 34°38' E 135°25'0 0.0
2015-May-20 05:16N 34°38' E 135°25'0 0.0
2015-May-20 04:22N 34°38' E 135°25'0 0.0
2015-May-20 03:28N 34°38' E 135°25'0 0.0
2015-May-20 02:10N 34°38' E 135°25'0 0.0
2015-May-20 01:28N 34°38' E 135°25'0 0.0
2015-May-20 00:28N 34°38' E 135°25'0 0.0
2015-May-19 23:19N 34°38' E 135°25'0 0.0
2015-May-19 22:31N 34°38' E 135°25'0 0.0
2015-May-19 21:25N 34°38' E 135°25'0 0.0
2015-May-19 20:31N 34°38' E 135°25'0 0.0
2015-May-19 19:25N 34°38' E 135°25'0 0.1
2015-May-19 18:31N 34°38' E 135°25'0 0.0
2015-May-19 17:31N 34°38' E 135°25'0 0.0
2015-May-19 16:31N 34°38' E 135°25'0 0.0
2015-May-19 15:31N 34°38' E 135°25'0 0.0
2015-May-19 14:31N 34°38' E 135°25'0 0.0
2015-May-19 13:19N 34°38' E 135°25'0 0.0
2015-May-19 12:31N 34°38' E 135°25'0 0.0
2015-May-19 11:25N 34°38' E 135°25'0 0.0
2015-May-19 10:31N 34°38' E 135°25'0 0.0
2015-May-19 09:31N 34°38' E 135°25'0 0.0
2015-May-19 08:25N 34°38' E 135°25'0 0.0
2015-May-19 07:31N 34°38' E 135°25'0 0.0
2015-May-19 06:31N 34°38' E 135°25'0 0.0
2015-May-19 05:25N 34°38' E 135°25'0 0.0
2015-May-19 04:31N 34°38' E 135°25'0 0.0
2015-May-19 03:31N 34°38' E 135°25'0 0.0
2015-May-19 02:31N 34°38' E 135°25'0 0.0
2015-May-19 01:31N 34°38' E 135°25'0 0.0
2015-May-19 00:31N 34°38' E 135°25'0 0.0
2015-May-18 23:31N 34°38' E 135°25'0 0.0
2015-May-18 22:31N 34°38' E 135°25'0 0.0
2015-May-18 21:31N 34°38' E 135°25'0 0.0
2015-May-18 20:31N 34°38' E 135°25'0 0.0
2015-May-18 19:31N 34°38' E 135°25'0 0.0
2015-May-18 18:31N 34°38' E 135°25'0 0.0
2015-May-18 17:31N 34°38' E 135°25'0 0.0
2015-May-18 16:31N 34°38' E 135°25'0 0.0
2015-May-18 15:31N 34°38' E 135°25'0 0.0
2015-May-18 14:19N 34°38' E 135°25'0 0.0
2015-May-18 13:31N 34°38' E 135°25'0 0.0
2015-May-18 12:31N 34°38' E 135°25'0 0.0
2015-May-18 11:31N 34°38' E 135°25'0 0.0
2015-May-18 10:31N 34°38' E 135°25'0 0.0
2015-May-18 09:31N 34°38' E 135°25'0 0.0
2015-May-18 08:25N 34°38' E 135°25'0 0.0
2015-May-18 07:31N 34°38' E 135°25'0 0.0
2015-May-18 06:31N 34°38' E 135°25'0 0.0
2015-May-18 05:25N 34°38' E 135°25'0 0.0
2015-May-18 04:19N 34°38' E 135°25'0 0.0
2015-May-18 03:25N 34°38' E 135°25'0 0.0
2015-May-18 02:31N 34°38' E 135°25'0 0.0
2015-May-18 01:31N 34°38' E 135°25'0 0.0
2015-May-18 00:31N 34°38' E 135°25'0 0.0
2015-May-17 23:31N 34°38' E 135°25'0 0.0
2015-May-17 22:31N 34°38' E 135°25'0 0.0
2015-May-17 21:31N 34°38' E 135°25'0 0.0
2015-May-17 20:31N 34°38' E 135°25'0 0.0
2015-May-17 19:31N 34°38' E 135°25'0 0.0
2015-May-17 18:31N 34°38' E 135°25'0 0.0
2015-May-17 17:31N 34°38' E 135°25'0 0.0
2015-May-17 16:31N 34°38' E 135°25'0 0.0
2015-May-17 15:31N 34°38' E 135°25'0 0.0
2015-May-17 14:31N 34°38' E 135°25'0 0.0
2015-May-17 13:25N 34°38' E 135°25'0 0.0
2015-May-17 12:31N 34°38' E 135°25'0 0.0
2015-May-17 11:31N 34°38' E 135°25'0 0.0
2015-May-17 10:31N 34°38' E 135°25'0 0.0
2015-May-17 09:31N 34°38' E 135°25'0 0.0
2015-May-17 08:19N 34°38' E 135°25'0 0.0
2015-May-17 07:31N 34°38' E 135°25'0 0.0
2015-May-17 06:31N 34°38' E 135°25'0 0.0
2015-May-17 05:25N 34°38' E 135°25'0 0.0
2015-May-17 04:25N 34°38' E 135°25'0 0.0
2015-May-17 03:25N 34°38' E 135°25'0 0.0
2015-May-17 02:31N 34°38' E 135°25'0 0.0
2015-May-17 01:31N 34°38' E 135°25'0 0.0
2015-May-17 00:19N 34°38' E 135°25'0 0.0
2015-May-16 23:31N 34°38' E 135°25'0 0.0
2015-May-16 22:31N 34°38' E 135°25'0 0.0
2015-May-16 21:31N 34°38' E 135°25'0 0.0
2015-May-16 20:31N 34°38' E 135°25'0 0.0
2015-May-16 19:31N 34°38' E 135°25'0 0.0
2015-May-16 18:31N 34°38' E 135°25'0 0.0
2015-May-16 17:31N 34°38' E 135°25'0 0.0
2015-May-16 16:31N 34°38' E 135°25'0 0.0
2015-May-16 15:25N 34°38' E 135°25'0 0.0
2015-May-16 14:32N 34°38' E 135°25'0 0.0
2015-May-16 13:31N 34°38' E 135°25'0 0.0
2015-May-16 12:31N 34°38' E 135°25'0 0.0
2015-May-16 11:31N 34°38' E 135°25'0 0.1
2015-May-16 10:31N 34°38' E 135°25'0 0.0
2015-May-16 09:31N 34°38' E 135°25'0 0.0
2015-May-16 08:31N 34°38' E 135°25'0 0.0
2015-May-16 07:31N 34°38' E 135°25'0 0.0
2015-May-16 06:31N 34°38' E 135°25'0 0.0
2015-May-16 05:31N 34°38' E 135°25'0 0.0
2015-May-16 04:31N 34°38' E 135°25'0 0.0
2015-May-16 03:31N 34°38' E 135°25'0 0.0
2015-May-16 02:31N 34°38' E 135°25'0 0.0
2015-May-16 01:31N 34°38' E 135°25'  
Track history (hours):
 
Tides and Currents Weather Stations Pressure Air Temp Water Temp Dewpoint Dewpoint Depression Visibility Wind Speed Wind Dir Waves Ship Positions

Bungo Princess

Last reported at 2015-May-26 01:25 UTC. Time now 2015-May-26 01:45 UTC.
Position N 31°22' E 121°30'.

Length 103 m; draft 8.4 m.

Type: Cargo ship. MMSI: 355091000.

Date/timePositionNaut miles runAvg speedWind from/ knotsBaromVisibWave heightAir tempDewpointWater temp
2015-May-26 01:25N 31°22' E 121°30'0 0.4
2015-May-26 00:34N 31°22' E 121°30'5 4.6
2015-May-25 23:34N 31°23' E 121°35'9 9.1
2015-May-25 22:32N 31°19' E 121°45'1111.2
2015-May-25 21:34N 31°15' E 121°57'1110.3
2015-May-25 20:30N 31°12' E 122°09'1010.7
2015-May-25 19:34N 31°06' E 122°19'1010.2
2015-May-25 18:32N 31°08' E 122°31'7 7.6
2015-May-25 17:34N 31°11' E 122°38'0 0.2
2015-May-25 16:20N 31°11' E 122°38'0 0.1
2015-May-25 15:23N 31°11' E 122°38'0 0.1
2015-May-25 14:32N 31°11' E 122°38'0 0.1
2015-May-25 12:33N 31°11' E 122°39'11 9.9
2015-May-25 11:28N 31°14' E 122°51'1111.8
2015-May-25 10:33N 31°16' E 123°03'32612.0
2015-May-24 07:27N 33°30' E 128°55'1311.6
2015-May-24 06:17N 33°38' E 129°09'811.4
2015-May-24 05:33N 33°43' E 129°17'2411.2
2015-May-24 03:26N 33°56' E 129°40'1511.5
2015-May-24 02:09N 33°59' E 129°58'1111.8
2015-May-24 01:13N 34°01' E 130°11'  
2015-May-20 14:32N 34°35' E 134°51'1312.9
2015-May-20 13:33N 34°35' E 135°07'1211.9
2015-May-20 12:33N 34°37' E 135°21'3 2.6
2015-May-20 11:22N 34°38' E 135°25'0 0.0
2015-May-20 10:22N 34°38' E 135°25'0 0.0
2015-May-20 09:28N 34°38' E 135°25'0 0.0
2015-May-20 08:22N 34°38' E 135°25'0 0.0
2015-May-20 07:22N 34°38' E 135°25'0 0.0
2015-May-20 06:04N 34°38' E 135°25'0 0.0
2015-May-20 05:16N 34°38' E 135°25'0 0.0
2015-May-20 04:22N 34°38' E 135°25'0 0.0
2015-May-20 03:28N 34°38' E 135°25'0 0.0
2015-May-20 02:10N 34°38' E 135°25'0 0.0
2015-May-20 01:28N 34°38' E 135°25'0 0.0
2015-May-20 00:28N 34°38' E 135°25'0 0.0
2015-May-19 23:19N 34°38' E 135°25'0 0.0
2015-May-19 22:31N 34°38' E 135°25'0 0.0
2015-May-19 21:25N 34°38' E 135°25'0 0.0
2015-May-19 20:31N 34°38' E 135°25'0 0.0
2015-May-19 19:25N 34°38' E 135°25'0 0.1
2015-May-19 18:31N 34°38' E 135°25'0 0.0
2015-May-19 17:31N 34°38' E 135°25'0 0.0
2015-May-19 16:31N 34°38' E 135°25'0 0.0
2015-May-19 15:31N 34°38' E 135°25'0 0.0
2015-May-19 14:31N 34°38' E 135°25'0 0.0
2015-May-19 13:19N 34°38' E 135°25'0 0.0
2015-May-19 12:31N 34°38' E 135°25'0 0.0
2015-May-19 11:25N 34°38' E 135°25'0 0.0
2015-May-19 10:31N 34°38' E 135°25'0 0.0
2015-May-19 09:31N 34°38' E 135°25'0 0.0
2015-May-19 08:25N 34°38' E 135°25'0 0.0
2015-May-19 07:31N 34°38' E 135°25'0 0.0
2015-May-19 06:31N 34°38' E 135°25'0 0.0
2015-May-19 05:25N 34°38' E 135°25'0 0.0
2015-May-19 04:31N 34°38' E 135°25'0 0.0
2015-May-19 03:31N 34°38' E 135°25'0 0.0
2015-May-19 02:31N 34°38' E 135°25'0 0.0
2015-May-19 01:31N 34°38' E 135°25'0 0.0
2015-May-19 00:31N 34°38' E 135°25'0 0.0
2015-May-18 23:31N 34°38' E 135°25'0 0.0
2015-May-18 22:31N 34°38' E 135°25'0 0.0
2015-May-18 21:31N 34°38' E 135°25'0 0.0
2015-May-18 20:31N 34°38' E 135°25'0 0.0
2015-May-18 19:31N 34°38' E 135°25'0 0.0
2015-May-18 18:31N 34°38' E 135°25'0 0.0
2015-May-18 17:31N 34°38' E 135°25'0 0.0
2015-May-18 16:31N 34°38' E 135°25'0 0.0
2015-May-18 15:31N 34°38' E 135°25'0 0.0
2015-May-18 14:19N 34°38' E 135°25'0 0.0
2015-May-18 13:31N 34°38' E 135°25'0 0.0
2015-May-18 12:31N 34°38' E 135°25'0 0.0
2015-May-18 11:31N 34°38' E 135°25'0 0.0
2015-May-18 10:31N 34°38' E 135°25'0 0.0
2015-May-18 09:31N 34°38' E 135°25'0 0.0
2015-May-18 08:25N 34°38' E 135°25'0 0.0
2015-May-18 07:31N 34°38' E 135°25'0 0.0
2015-May-18 06:31N 34°38' E 135°25'0 0.0
2015-May-18 05:25N 34°38' E 135°25'0 0.0
2015-May-18 04:19N 34°38' E 135°25'0 0.0
2015-May-18 03:25N 34°38' E 135°25'0 0.0
2015-May-18 02:31N 34°38' E 135°25'0 0.0
2015-May-18 01:31N 34°38' E 135°25'0 0.0
2015-May-18 00:31N 34°38' E 135°25'0 0.0
2015-May-17 23:31N 34°38' E 135°25'0 0.0
2015-May-17 22:31N 34°38' E 135°25'0 0.0
2015-May-17 21:31N 34°38' E 135°25'0 0.0
2015-May-17 20:31N 34°38' E 135°25'0 0.0
2015-May-17 19:31N 34°38' E 135°25'0 0.0
2015-May-17 18:31N 34°38' E 135°25'0 0.0
2015-May-17 17:31N 34°38' E 135°25'0 0.0
2015-May-17 16:31N 34°38' E 135°25'0 0.0
2015-May-17 15:31N 34°38' E 135°25'0 0.0
2015-May-17 14:31N 34°38' E 135°25'0 0.0
2015-May-17 13:25N 34°38' E 135°25'0 0.0
2015-May-17 12:31N 34°38' E 135°25'0 0.0
2015-May-17 11:31N 34°38' E 135°25'0 0.0
2015-May-17 10:31N 34°38' E 135°25'0 0.0
2015-May-17 09:31N 34°38' E 135°25'0 0.0
2015-May-17 08:19N 34°38' E 135°25'0 0.0
2015-May-17 07:31N 34°38' E 135°25'0 0.0
2015-May-17 06:31N 34°38' E 135°25'0 0.0
2015-May-17 05:25N 34°38' E 135°25'0 0.0
2015-May-17 04:25N 34°38' E 135°25'0 0.0
2015-May-17 03:25N 34°38' E 135°25'0 0.0
2015-May-17 02:31N 34°38' E 135°25'0 0.0
2015-May-17 01:31N 34°38' E 135°25'0 0.0
2015-May-17 00:19N 34°38' E 135°25'0 0.0
2015-May-16 23:31N 34°38' E 135°25'0 0.0
2015-May-16 22:31N 34°38' E 135°25'0 0.0
2015-May-16 21:31N 34°38' E 135°25'0 0.0
2015-May-16 20:31N 34°38' E 135°25'0 0.0
2015-May-16 19:31N 34°38' E 135°25'0 0.0
2015-May-16 18:31N 34°38' E 135°25'0 0.0
2015-May-16 17:31N 34°38' E 135°25'0 0.0
2015-May-16 16:31N 34°38' E 135°25'0 0.0
2015-May-16 15:25N 34°38' E 135°25'0 0.0
2015-May-16 14:32N 34°38' E 135°25'0 0.0
2015-May-16 13:31N 34°38' E 135°25'0 0.0
2015-May-16 12:31N 34°38' E 135°25'0 0.0
2015-May-16 11:31N 34°38' E 135°25'0 0.1
2015-May-16 10:31N 34°38' E 135°25'0 0.0
2015-May-16 09:31N 34°38' E 135°25'0 0.0
2015-May-16 08:31N 34°38' E 135°25'0 0.0
2015-May-16 07:31N 34°38' E 135°25'0 0.0
2015-May-16 06:31N 34°38' E 135°25'0 0.0
2015-May-16 05:31N 34°38' E 135°25'0 0.0
2015-May-16 04:31N 34°38' E 135°25'0 0.0
2015-May-16 03:31N 34°38' E 135°25'0 0.0
2015-May-16 02:31N 34°38' E 135°25'0 0.0
2015-May-16 01:31N 34°38' E 135°25'  

Dump ship's entire track history